Time;durP1;ratioP1;P1;durP2;ratioP2;P2;SDS_P1;SDS_P2;PMS_P1;PMS_P2;Temp;Humidity;BMP_temperature;BMP_pressure;BME280_temperature;BME280_humidity;BME280_pressure;Samples;Min_cycle;Max_cycle;Signal;HPM_P1;HPM_P2
2023/05/21 00:00:59;;;;;;;5.90;4.38;;;15.60;99.70;;;;;;5016345;28;20472;-57
2023/05/21 00:03:26;;;;;;;6.97;3.90;;;15.70;99.80;;;;;;5009091;28;20056;-58
2023/05/21 00:05:53;;;;;;;6.78;3.97;;;15.70;99.90;;;;;;5010488;28;20046;-57
2023/05/21 00:08:19;;;;;;;7.25;3.97;;;15.70;99.90;;;;;;5008939;28;20539;-57
2023/05/21 00:10:45;;;;;;;11.30;4.03;;;15.70;99.90;;;;;;5007549;28;20057;-57
2023/05/21 00:13:11;;;;;;;10.23;4.18;;;15.70;99.90;;;;;;5007732;28;20046;-58
2023/05/21 00:15:37;;;;;;;7.43;4.50;;;15.70;99.90;;;;;;5006413;28;20566;-57
2023/05/21 00:18:03;;;;;;;8.13;4.22;;;15.70;99.90;;;;;;5013890;28;20630;-57
2023/05/21 00:20:31;;;;;;;8.43;4.35;;;15.60;99.90;;;;;;5011071;28;20053;-57
2023/05/21 00:22:57;;;;;;;9.13;3.75;;;15.60;99.90;;;;;;5010271;28;20045;-57
2023/05/21 00:25:23;;;;;;;9.98;3.75;;;15.50;99.90;;;;;;5004782;28;20048;-57
2023/05/21 00:27:49;;;;;;;7.22;3.35;;;15.50;99.90;;;;;;5015800;28;20053;-57
2023/05/21 00:30:15;;;;;;;9.18;4.80;;;15.40;99.90;;;;;;5017387;28;20041;-58
2023/05/21 00:32:41;;;;;;;9.27;4.07;;;15.40;99.90;;;;;;5019078;28;20614;-57
2023/05/21 00:35:07;;;;;;;8.95;4.13;;;15.40;99.90;;;;;;5000991;28;20180;-57
2023/05/21 00:37:33;;;;;;;10.43;4.03;;;15.40;99.90;;;;;;5016094;28;20115;-58
2023/05/21 00:40:07;;;;;;;6.30;4.45;;;15.30;99.90;;;;;;5018435;28;20694;-58
2023/05/21 00:42:38;;;;;;;6.47;3.70;;;15.30;99.90;;;;;;5021311;28;20045;-57
2023/05/21 00:45:04;;;;;;;7.03;3.65;;;15.30;99.90;;;;;;5022024;28;20111;-57
2023/05/21 00:47:30;;;;;;;7.20;4.03;;;15.20;99.90;;;;;;4989070;28;20050;-57
2023/05/21 00:49:56;;;;;;;8.23;4.13;;;15.30;99.90;;;;;;5017520;28;20120;-58
2023/05/21 00:52:26;;;;;;;6.35;4.43;;;15.30;99.90;;;;;;5018137;28;20661;-57
2023/05/21 00:54:52;;;;;;;10.60;4.47;;;15.30;99.90;;;;;;5014085;28;20038;-58
2023/05/21 00:57:22;;;;;;;8.35;4.50;;;15.20;99.90;;;;;;5010862;28;20042;-57
2023/05/21 00:59:50;;;;;;;7.78;4.85;;;15.30;99.90;;;;;;5012485;28;20072;-57
2023/05/21 01:02:17;;;;;;;7.95;3.88;;;15.30;99.90;;;;;;5011059;28;20073;-57
2023/05/21 01:04:44;;;;;;;8.48;3.58;;;15.20;99.90;;;;;;5016937;28;20044;-58
2023/05/21 01:07:11;;;;;;;8.40;4.30;;;15.20;99.90;;;;;;5013927;28;20329;-57
2023/05/21 01:09:37;;;;;;;7.35;3.88;;;15.20;99.90;;;;;;5018253;28;20844;-57
2023/05/21 01:12:05;;;;;;;7.72;3.40;;;15.30;99.90;;;;;;5012420;28;20034;-57
2023/05/21 01:14:31;;;;;;;8.00;4.20;;;15.20;99.90;;;;;;5012587;28;20042;-58
2023/05/21 01:17:00;;;;;;;7.20;4.53;;;15.20;99.90;;;;;;5014334;28;20053;-57
2023/05/21 01:19:27;;;;;;;6.75;3.75;;;15.20;99.90;;;;;;5009733;28;20165;-57
2023/05/21 01:22:00;;;;;;;12.23;4.13;;;15.20;99.90;;;;;;5009838;28;20146;-57
2023/05/21 01:24:26;;;;;;;11.48;4.53;;;15.20;99.90;;;;;;5005149;28;20042;-57
2023/05/21 01:26:51;;;;;;;5.97;3.33;;;15.20;99.90;;;;;;5008310;28;20050;-57
2023/05/21 01:29:18;;;;;;;11.25;4.50;;;15.10;99.90;;;;;;5007841;28;20576;-58
2023/05/21 01:32:05;;;;;;;8.80;5.15;;;15.10;99.90;;;;;;5004904;28;20706;-57
2023/05/21 01:34:44;;;;;;;4.45;2.80;;;15.10;99.90;;;;;;5015454;28;20149;-57
2023/05/21 01:37:25;;;;;;;8.38;4.30;;;15.10;99.90;;;;;;5015334;28;20127;-58
2023/05/21 01:39:55;;;;;;;9.57;3.95;;;15.10;99.90;;;;;;5019499;28;20502;-58
2023/05/21 01:42:23;;;;;;;7.07;4.22;;;15.00;99.90;;;;;;5024046;28;20557;-57
2023/05/21 01:44:53;;;;;;;6.15;3.83;;;15.00;99.90;;;;;;5020163;28;20054;-57
2023/05/21 01:47:22;;;;;;;3.17;2.38;;;15.00;99.90;;;;;;5024289;28;20498;-58
2023/05/21 01:49:49;;;;;;;8.00;4.40;;;14.90;99.90;;;;;;5024494;28;20112;-57
2023/05/21 01:52:15;;;;;;;7.50;3.72;;;15.00;99.90;;;;;;5023136;28;20049;-57
2023/05/21 01:54:40;;;;;;;9.52;4.60;;;14.90;99.90;;;;;;5023236;28;20038;-58
2023/05/21 01:57:06;;;;;;;6.20;3.22;;;14.90;99.90;;;;;;5023573;28;20061;-57
2023/05/21 01:59:33;;;;;;;13.93;4.32;;;14.90;99.90;;;;;;5023787;28;20060;-58
2023/05/21 02:01:58;;;;;;;6.53;2.97;;;14.90;99.90;;;;;;5020992;28;20112;-58
2023/05/21 02:04:24;;;;;;;10.15;4.40;;;14.90;99.90;;;;;;5022559;28;20463;-57
2023/05/21 02:06:50;;;;;;;9.82;4.35;;;14.80;99.90;;;;;;5019151;28;20045;-57
2023/05/21 02:09:16;;;;;;;7.07;3.65;;;14.80;99.90;;;;;;5020429;28;20073;-57
2023/05/21 02:11:42;;;;;;;7.90;3.58;;;14.80;99.90;;;;;;5017987;28;20041;-58
2023/05/21 02:14:09;;;;;;;9.60;5.82;;;14.80;99.90;;;;;;5017397;28;20188;-57
2023/05/21 02:16:37;;;;;;;8.32;4.50;;;14.80;99.90;;;;;;5022080;28;20045;-57
2023/05/21 02:19:03;;;;;;;15.35;5.25;;;14.80;99.90;;;;;;5022122;28;20053;-57
2023/05/21 02:21:29;;;;;;;7.25;3.63;;;14.80;99.90;;;;;;5023776;28;20050;-58
2023/05/21 02:23:56;;;;;;;13.55;4.95;;;14.80;99.90;;;;;;5023363;28;20045;-57
2023/05/21 02:26:21;;;;;;;10.40;4.10;;;14.80;99.90;;;;;;5008007;28;20554;-58
2023/05/21 02:28:47;;;;;;;9.18;4.35;;;14.70;99.90;;;;;;5018692;28;20591;-58
2023/05/21 02:31:13;;;;;;;5.00;2.78;;;14.70;99.90;;;;;;5020054;28;20048;-57
2023/05/21 02:33:41;;;;;;;10.63;4.47;;;14.70;99.90;;;;;;5020811;28;20083;-57
2023/05/21 02:36:11;;;;;;;7.22;4.15;;;14.70;99.90;;;;;;5019775;28;20588;-57
2023/05/21 02:38:42;;;;;;;7.68;4.35;;;14.60;99.90;;;;;;5017187;28;20045;-57
2023/05/21 02:41:09;;;;;;;10.63;4.80;;;14.60;99.90;;;;;;5019905;28;20044;-58
2023/05/21 02:43:35;;;;;;;13.02;4.70;;;14.60;99.90;;;;;;5020553;28;20194;-57
2023/05/21 02:46:01;;;;;;;7.85;4.47;;;14.60;99.90;;;;;;5020827;28;20618;-58
2023/05/21 02:48:26;;;;;;;7.03;5.47;;;14.60;99.90;;;;;;5016105;28;20044;-57
2023/05/21 02:50:53;;;;;;;5.70;2.72;;;14.60;99.90;;;;;;5016526;28;20913;-57
2023/05/21 02:53:18;;;;;;;6.38;4.43;;;14.50;99.90;;;;;;5019219;28;20124;-58
2023/05/21 02:55:44;;;;;;;9.50;3.80;;;14.50;99.90;;;;;;5020851;28;20088;-57
2023/05/21 02:58:12;;;;;;;8.68;5.75;;;14.50;99.90;;;;;;5011351;28;20045;-57
2023/05/21 03:00:38;;;;;;;6.60;4.43;;;14.60;99.90;;;;;;5015800;28;20846;-57
2023/05/21 03:03:03;;;;;;;9.00;4.22;;;14.60;99.90;;;;;;5020970;28;20056;-57
2023/05/21 03:05:30;;;;;;;7.38;4.80;;;14.50;99.90;;;;;;5022179;28;20448;-57
2023/05/21 03:07:55;;;;;;;10.90;4.72;;;14.50;99.90;;;;;;5022156;28;20539;-57
2023/05/21 03:10:21;;;;;;;9.55;5.90;;;14.50;99.90;;;;;;5022250;28;20050;-57
2023/05/21 03:12:47;;;;;;;10.30;5.57;;;14.50;99.90;;;;;;5011182;28;20053;-57
2023/05/21 03:15:13;;;;;;;8.23;4.68;;;14.50;99.90;;;;;;5010004;28;20054;-58
2023/05/21 03:17:41;;;;;;;8.85;4.28;;;14.50;99.90;;;;;;5011093;28;21117;-57
2023/05/21 03:20:14;;;;;;;9.20;4.90;;;14.50;99.90;;;;;;5009182;28;20038;-58
2023/05/21 03:22:43;;;;;;;8.27;4.80;;;14.50;99.90;;;;;;4995469;28;20571;-57
2023/05/21 03:25:10;;;;;;;11.02;4.97;;;14.40;99.90;;;;;;5039854;28;20057;-57
2023/05/21 03:27:37;;;;;;;7.50;3.58;;;14.30;99.90;;;;;;5013180;28;20069;-57
2023/05/21 03:30:04;;;;;;;11.82;4.90;;;14.30;99.90;;;;;;5012137;28;21130;-57
2023/05/21 03:32:32;;;;;;;7.85;4.88;;;14.20;99.90;;;;;;5009546;28;20794;-57
2023/05/21 03:34:58;;;;;;;11.10;5.07;;;14.20;99.90;;;;;;5012029;28;20152;-57
2023/05/21 03:37:24;;;;;;;8.68;4.07;;;14.10;99.90;;;;;;5008540;28;20038;-57
2023/05/21 03:39:50;;;;;;;11.02;5.15;;;14.10;99.90;;;;;;5011570;28;20860;-58
2023/05/21 03:42:15;;;;;;;7.72;4.55;;;14.00;99.90;;;;;;5012469;28;20416;-58
2023/05/21 03:44:41;;;;;;;10.55;5.18;;;14.50;99.90;;;;;;5019441;28;20058;-58
2023/05/21 03:47:07;;;;;;;6.35;2.95;;;14.00;99.90;;;;;;5019669;28;20037;-57
2023/05/21 03:49:33;;;;;;;10.10;4.50;;;14.00;99.90;;;;;;5016001;28;20042;-58
2023/05/21 03:51:58;;;;;;;9.88;4.95;;;13.90;99.90;;;;;;5019515;28;20049;-58
2023/05/21 03:54:24;;;;;;;10.13;4.72;;;13.90;99.90;;;;;;5019751;28;20046;-57
2023/05/21 03:56:50;;;;;;;11.55;5.20;;;13.90;99.90;;;;;;5014854;28;20030;-58
2023/05/21 03:59:15;;;;;;;8.10;4.07;;;13.90;99.90;;;;;;5015447;28;20164;-57
2023/05/21 04:01:42;;;;;;;8.68;5.07;;;13.90;99.90;;;;;;5049833;28;20037;-57
2023/05/21 04:04:08;;;;;;;7.90;4.57;;;13.80;99.90;;;;;;5014098;28;20042;-57
2023/05/21 04:06:33;;;;;;;12.88;6.07;;;13.80;99.90;;;;;;5015078;28;20046;-58
2023/05/21 04:09:00;;;;;;;14.43;5.25;;;13.80;99.90;;;;;;5043822;28;20133;-57
2023/05/21 04:11:25;;;;;;;8.40;3.70;;;13.70;99.90;;;;;;5014980;28;20113;-57
2023/05/21 04:13:51;;;;;;;10.35;6.28;;;13.70;99.90;;;;;;5018052;28;20042;-57
2023/05/21 04:16:17;;;;;;;12.52;5.13;;;13.60;99.90;;;;;;5017347;28;20064;-58
2023/05/21 04:18:45;;;;;;;7.95;3.80;;;13.60;99.90;;;;;;5017025;28;20042;-57
2023/05/21 04:21:10;;;;;;;13.48;5.43;;;13.60;99.90;;;;;;5021308;28;20048;-58
2023/05/21 04:23:36;;;;;;;11.35;6.28;;;13.50;99.90;;;;;;5021960;28;20073;-58
2023/05/21 04:26:03;;;;;;;14.13;5.90;;;13.60;99.90;;;;;;5016992;28;20045;-57
2023/05/21 04:28:29;;;;;;;11.23;7.15;;;13.60;99.90;;;;;;5017946;28;20197;-57
2023/05/21 04:30:55;;;;;;;11.38;5.60;;;13.50;99.90;;;;;;5017114;28;20054;-58
2023/05/21 04:33:21;;;;;;;22.83;6.38;;;13.50;99.90;;;;;;5019897;28;21053;-58
2023/05/21 04:35:50;;;;;;;12.10;5.85;;;13.50;99.90;;;;;;5020860;28;20042;-58
2023/05/21 04:38:18;;;;;;;11.05;5.40;;;13.50;99.90;;;;;;5017381;28;20037;-57
2023/05/21 04:40:49;;;;;;;14.43;6.03;;;13.50;99.90;;;;;;5019638;28;20586;-57
2023/05/21 04:43:15;;;;;;;11.65;6.20;;;13.50;99.90;;;;;;5016336;28;20610;-57
2023/05/21 04:45:42;;;;;;;10.10;5.50;;;13.50;99.90;;;;;;5012878;28;20062;-57
2023/05/21 04:48:08;;;;;;;10.18;6.20;;;13.50;99.90;;;;;;5019832;28;20113;-58
2023/05/21 04:50:35;;;;;;;18.48;7.85;;;13.50;99.90;;;;;;5018985;28;20100;-57
2023/05/21 04:53:02;;;;;;;13.68;6.78;;;13.50;99.90;;;;;;5015878;28;20050;-57
2023/05/21 04:55:28;;;;;;;10.88;5.40;;;13.50;99.90;;;;;;5020356;28;20136;-57
2023/05/21 04:57:53;;;;;;;10.43;6.47;;;13.50;99.90;;;;;;5017163;28;20041;-57
2023/05/21 05:00:20;;;;;;;15.90;5.35;;;13.40;99.90;;;;;;5029226;28;20415;-57
2023/05/21 05:02:46;;;;;;;10.05;4.97;;;13.50;99.90;;;;;;5018267;28;20053;-57
2023/05/21 05:05:11;;;;;;;11.80;5.38;;;13.50;99.90;;;;;;5020019;28;20049;-57
2023/05/21 05:07:37;;;;;;;16.17;7.65;;;13.40;99.90;;;;;;5015396;28;20489;-57
2023/05/21 05:10:03;;;;;;;11.70;6.00;;;13.40;99.90;;;;;;5018041;28;20053;-57
2023/05/21 05:12:29;;;;;;;10.02;5.50;;;13.50;99.90;;;;;;5019351;28;20044;-57
2023/05/21 05:14:55;;;;;;;9.98;5.13;;;13.40;99.90;;;;;;5019374;28;20056;-58
2023/05/21 05:17:20;;;;;;;13.38;6.18;;;13.50;99.90;;;;;;5014346;28;20042;-59
2023/05/21 05:19:46;;;;;;;9.75;6.38;;;13.50;99.90;;;;;;5020521;28;20046;-57
2023/05/21 05:22:11;;;;;;;10.07;4.88;;;13.50;99.90;;;;;;5016570;28;20046;-57
2023/05/21 05:24:37;;;;;;;11.98;4.35;;;13.50;99.90;;;;;;5019085;28;20041;-57
2023/05/21 05:27:03;;;;;;;6.97;4.50;;;13.60;99.90;;;;;;5017801;28;20041;-57
2023/05/21 05:29:29;;;;;;;7.03;4.72;;;13.60;99.90;;;;;;5013720;28;20053;-57
2023/05/21 05:31:54;;;;;;;9.75;5.90;;;13.60;99.90;;;;;;5013971;28;20046;-57
2023/05/21 05:34:20;;;;;;;9.07;4.63;;;13.60;99.90;;;;;;5009337;28;20072;-57
2023/05/21 05:36:46;;;;;;;10.77;6.25;;;13.70;99.90;;;;;;5009037;28;20056;-57
2023/05/21 05:39:11;;;;;;;12.98;6.38;;;13.70;99.90;;;;;;5010132;28;20049;-57
2023/05/21 05:41:37;;;;;;;8.65;5.70;;;13.70;99.90;;;;;;5008923;28;20173;-57
2023/05/21 05:44:03;;;;;;;12.30;7.18;;;13.70;99.90;;;;;;5010558;28;20524;-57
2023/05/21 05:46:29;;;;;;;11.95;7.40;;;13.70;99.90;;;;;;5009994;28;20054;-57
2023/05/21 05:48:54;;;;;;;17.27;6.78;;;13.70;99.90;;;;;;5011911;28;21283;-58
2023/05/21 05:51:20;;;;;;;16.50;7.15;;;13.80;99.90;;;;;;5006565;28;21648;-57
2023/05/21 05:53:46;;;;;;;12.15;6.80;;;13.80;99.90;;;;;;5007213;28;20840;-57
2023/05/21 05:56:12;;;;;;;14.63;7.25;;;13.90;99.90;;;;;;5009403;28;20049;-57
2023/05/21 05:58:37;;;;;;;13.65;7.13;;;13.90;99.90;;;;;;5010270;28;20045;-58
2023/05/21 06:01:03;;;;;;;13.10;7.47;;;13.90;99.90;;;;;;5004662;28;20076;-57
2023/05/21 06:03:29;;;;;;;13.35;9.00;;;13.90;99.90;;;;;;5005797;28;20793;-57
2023/05/21 06:05:55;;;;;;;10.57;6.68;;;14.00;99.90;;;;;;5007847;28;20042;-57
2023/05/21 06:08:20;;;;;;;15.45;7.55;;;14.00;99.90;;;;;;5008925;28;20038;-57
2023/05/21 06:10:46;;;;;;;18.02;7.65;;;14.00;99.90;;;;;;5014717;28;20049;-57
2023/05/21 06:13:12;;;;;;;11.10;6.82;;;14.10;99.90;;;;;;5004279;28;20110;-57
2023/05/21 06:15:41;;;;;;;12.20;6.43;;;14.10;99.90;;;;;;5008887;28;20045;-57
2023/05/21 06:18:07;;;;;;;12.00;8.25;;;14.10;99.90;;;;;;5010653;28;20049;-57
2023/05/21 06:20:33;;;;;;;8.75;6.75;;;14.20;99.90;;;;;;5010201;28;24015;-58
2023/05/21 06:22:59;;;;;;;16.75;9.23;;;14.20;99.90;;;;;;5009702;28;20037;-58
2023/05/21 06:25:25;;;;;;;15.77;7.13;;;14.20;99.90;;;;;;5018317;28;20037;-57
2023/05/21 06:27:51;;;;;;;13.88;8.80;;;14.20;99.90;;;;;;5020050;28;20217;-58
2023/05/21 06:30:17;;;;;;;23.02;7.10;;;14.30;99.90;;;;;;5020398;28;20041;-57
2023/05/21 06:32:43;;;;;;;14.65;6.15;;;14.30;99.90;;;;;;5023683;28;20059;-57
2023/05/21 06:35:09;;;;;;;11.23;6.10;;;14.40;99.90;;;;;;5023753;28;20062;-57
2023/05/21 06:37:34;;;;;;;12.63;7.38;;;14.40;99.90;;;;;;5012658;28;20052;-57
2023/05/21 06:40:00;;;;;;;12.18;7.80;;;14.40;99.90;;;;;;5020273;28;20041;-57
2023/05/21 06:42:26;;;;;;;16.75;6.57;;;14.40;99.90;;;;;;5022424;28;20818;-57
2023/05/21 06:44:52;;;;;;;15.02;7.80;;;14.40;99.90;;;;;;5001988;28;20065;-57
2023/05/21 06:47:17;;;;;;;15.40;8.27;;;14.50;99.90;;;;;;5021266;28;20196;-57
2023/05/21 06:49:43;;;;;;;14.77;8.52;;;14.60;99.90;;;;;;5021260;28;20058;-57
2023/05/21 06:52:10;;;;;;;16.27;8.05;;;14.70;99.90;;;;;;5021881;28;20046;-58
2023/05/21 06:54:35;;;;;;;13.30;7.78;;;14.70;99.90;;;;;;5018537;28;20038;-57
2023/05/21 06:57:01;;;;;;;13.80;7.47;;;14.80;99.90;;;;;;5012630;28;20050;-58
2023/05/21 06:59:27;;;;;;;18.13;5.65;;;14.80;99.90;;;;;;5022247;28;20049;-57
2023/05/21 07:01:52;;;;;;;13.98;8.18;;;14.90;99.90;;;;;;5013278;28;20416;-58
2023/05/21 07:04:18;;;;;;;9.52;6.53;;;15.00;99.90;;;;;;5014056;28;20136;-57
2023/05/21 07:06:44;;;;;;;12.85;6.85;;;15.10;99.90;;;;;;5018387;28;20119;-58
2023/05/21 07:09:09;;;;;;;12.90;8.18;;;15.20;99.90;;;;;;5023564;28;20114;-57
2023/05/21 07:11:35;;;;;;;16.25;9.05;;;15.30;99.90;;;;;;5022114;28;20163;-57
2023/05/21 07:14:01;;;;;;;12.60;6.28;;;15.40;99.90;;;;;;5023875;28;20407;-57
2023/05/21 07:16:27;;;;;;;10.75;5.63;;;15.40;99.90;;;;;;5023507;28;20534;-57
2023/05/21 07:18:52;;;;;;;12.55;7.07;;;15.50;99.90;;;;;;5023094;28;20966;-57
2023/05/21 07:21:18;;;;;;;14.57;9.07;;;15.50;99.90;;;;;;5024097;28;20042;-57
2023/05/21 07:23:44;;;;;;;17.77;9.07;;;15.50;99.90;;;;;;5024168;28;20064;-57
2023/05/21 07:26:10;;;;;;;13.27;7.95;;;15.60;99.90;;;;;;5024498;28;20200;-57
2023/05/21 07:28:36;;;;;;;12.75;7.35;;;15.70;99.90;;;;;;5021989;28;20037;-58
2023/05/21 07:31:01;;;;;;;11.18;6.80;;;15.70;99.90;;;;;;5022394;28;20360;-57
2023/05/21 07:33:27;;;;;;;15.57;7.50;;;15.80;99.90;;;;;;5021016;28;20423;-57
2023/05/21 07:35:53;;;;;;;7.80;4.07;;;15.90;99.90;;;;;;5018590;28;20050;-57
2023/05/21 07:38:18;;;;;;;11.52;7.40;;;16.10;99.90;;;;;;5010547;28;20152;-58
2023/05/21 07:40:44;;;;;;;11.65;7.68;;;16.20;99.90;;;;;;5017047;28;20049;-57
2023/05/21 07:43:11;;;;;;;11.68;7.30;;;16.30;99.90;;;;;;5015727;28;20042;-57
2023/05/21 07:45:37;;;;;;;10.10;5.00;;;16.40;99.90;;;;;;5017371;28;20216;-58
2023/05/21 07:48:03;;;;;;;11.55;7.55;;;16.50;99.90;;;;;;5016164;28;20647;-58
2023/05/21 07:50:29;;;;;;;15.30;7.90;;;16.60;99.90;;;;;;5010048;28;20704;-58
2023/05/21 07:52:54;;;;;;;9.73;6.53;;;16.70;99.90;;;;;;5017431;28;20049;-57
2023/05/21 07:55:20;;;;;;;10.40;7.03;;;16.80;99.90;;;;;;5020675;28;20120;-57
2023/05/21 07:57:46;;;;;;;15.00;8.95;;;16.90;99.90;;;;;;5005585;28;20046;-57
2023/05/21 08:00:15;;;;;;;11.68;6.95;;;16.90;99.90;;;;;;5016298;28;20053;-57
2023/05/21 08:02:41;;;;;;;11.07;7.47;;;16.90;99.90;;;;;;5020075;28;20037;-56
2023/05/21 08:05:07;;;;;;;10.38;4.65;;;16.90;99.90;;;;;;5017760;28;20053;-58
2023/05/21 08:07:33;;;;;;;10.35;6.50;;;16.80;99.90;;;;;;5019324;28;20045;-59
2023/05/21 08:09:58;;;;;;;16.80;8.35;;;16.70;99.90;;;;;;5017803;28;20378;-57
2023/05/21 08:12:24;;;;;;;10.77;6.82;;;16.60;99.90;;;;;;5021926;28;20042;-57
2023/05/21 08:14:50;;;;;;;14.73;6.28;;;16.60;99.90;;;;;;5020919;28;20046;-58
2023/05/21 08:17:16;;;;;;;10.57;6.22;;;16.50;99.90;;;;;;5023804;28;20067;-57
2023/05/21 08:19:42;;;;;;;11.05;4.88;;;16.50;99.90;;;;;;5020653;28;20048;-57
2023/05/21 08:22:08;;;;;;;12.68;6.78;;;16.50;99.90;;;;;;5022313;28;20038;-57
2023/05/21 08:24:34;;;;;;;15.38;7.97;;;16.40;99.90;;;;;;5017597;28;20073;-57
2023/05/21 08:27:00;;;;;;;16.55;7.60;;;16.40;99.90;;;;;;5006450;28;20046;-57
2023/05/21 08:29:25;;;;;;;12.20;6.30;;;16.40;99.90;;;;;;5022328;28;20066;-57
2023/05/21 08:31:51;;;;;;;8.55;5.15;;;16.40;99.90;;;;;;5022233;28;20042;-57
2023/05/21 08:34:17;;;;;;;12.25;8.18;;;16.40;99.90;;;;;;5018062;28;20042;-57
2023/05/21 08:36:45;;;;;;;13.18;6.70;;;16.40;99.90;;;;;;5019355;28;20041;-57
2023/05/21 08:39:12;;;;;;;10.27;6.47;;;16.40;99.90;;;;;;5022378;28;20087;-57
2023/05/21 08:41:39;;;;;;;12.68;7.05;;;16.40;99.90;;;;;;5051805;28;20108;-57
2023/05/21 08:44:10;;;;;;;7.13;4.75;;;16.50;99.90;;;;;;5022040;28;20561;-57
2023/05/21 08:46:40;;;;;;;10.95;7.15;;;16.60;99.90;;;;;;5020684;28;20103;-58
2023/05/21 08:49:11;;;;;;;10.23;6.43;;;16.60;99.90;;;;;;5020186;28;20046;-57
2023/05/21 08:51:38;;;;;;;13.25;8.00;;;16.60;99.90;;;;;;5010327;28;20072;-57
2023/05/21 08:54:04;;;;;;;10.55;5.30;;;16.70;99.90;;;;;;5020763;28;20045;-57
2023/05/21 08:56:34;;;;;;;10.55;5.70;;;16.70;99.90;;;;;;5020318;28;20041;-58
2023/05/21 08:59:01;;;;;;;6.95;4.38;;;16.80;99.90;;;;;;5015247;28;20644;-57
2023/05/21 09:01:27;;;;;;;13.50;6.60;;;16.80;99.90;;;;;;5020815;28;20057;-57
2023/05/21 09:03:56;;;;;;;11.20;5.90;;;16.80;99.90;;;;;;5020601;28;21167;-57
2023/05/21 09:06:24;;;;;;;8.98;5.10;;;17.00;99.90;;;;;;5014750;28;20041;-57
2023/05/21 09:08:59;;;;;;;8.43;5.20;;;17.00;99.90;;;;;;5021156;28;20042;-57
2023/05/21 09:11:25;;;;;;;5.78;3.78;;;17.10;99.90;;;;;;5017907;28;20401;-57
2023/05/21 09:13:52;;;;;;;10.25;4.50;;;17.10;99.90;;;;;;5017767;28;20131;-57
2023/05/21 09:16:18;;;;;;;7.55;3.80;;;17.20;99.90;;;;;;5021559;28;20056;-57
2023/05/21 09:18:44;;;;;;;5.70;3.47;;;17.30;99.90;;;;;;5022472;28;20045;-57
2023/05/21 09:21:27;;;;;;;3.90;2.70;;;17.30;99.90;;;;;;5022600;28;20042;-57
2023/05/21 09:23:55;;;;;;;9.80;5.57;;;17.40;99.90;;;;;;5023861;28;20061;-57
2023/05/21 09:26:21;;;;;;;3.40;2.30;;;17.40;99.90;;;;;;5025665;28;20049;-58
2023/05/21 09:28:47;;;;;;;4.53;3.10;;;17.50;99.90;;;;;;5022580;28;20115;-57
2023/05/21 09:31:13;;;;;;;5.95;3.30;;;17.50;99.90;;;;;;5024113;28;20042;-58
2023/05/21 09:33:46;;;;;;;7.72;3.88;;;17.60;99.90;;;;;;5025009;28;20049;-57
2023/05/21 09:36:12;;;;;;;5.80;3.00;;;17.60;99.90;;;;;;5024862;28;20066;-60
2023/05/21 09:38:38;;;;;;;8.88;4.40;;;17.70;99.90;;;;;;5023288;28;20041;-57
2023/05/21 09:41:05;;;;;;;4.95;3.35;;;17.80;99.90;;;;;;5024305;28;20120;-57
2023/05/21 09:43:31;;;;;;;5.47;3.10;;;17.80;99.90;;;;;;5023714;28;20037;-57
2023/05/21 09:45:58;;;;;;;6.53;4.68;;;17.90;99.90;;;;;;5023130;28;20066;-58
2023/05/21 09:48:34;;;;;;;6.65;3.75;;;17.90;99.90;;;;;;5022122;28;20578;-57
2023/05/21 09:51:16;;;;;;;4.97;3.60;;;17.90;99.90;;;;;;5020957;28;20551;-57
2023/05/21 09:53:56;;;;;;;7.95;3.88;;;18.00;99.90;;;;;;5023559;28;20037;-58
2023/05/21 09:56:28;;;;;;;5.32;3.50;;;18.00;99.90;;;;;;5022033;28;20049;-57
2023/05/21 09:58:59;;;;;;;8.48;3.95;;;18.00;99.90;;;;;;5022365;28;20038;-58
2023/05/21 10:01:25;;;;;;;4.63;3.20;;;18.10;99.90;;;;;;5027018;28;20056;-57
2023/05/21 10:03:56;;;;;;;8.85;3.67;;;18.00;99.90;;;;;;5026297;28;20307;-57
2023/05/21 10:06:33;;;;;;;4.63;2.70;;;18.10;99.90;;;;;;5028519;28;20046;-57
2023/05/21 10:09:04;;;;;;;7.93;3.75;;;18.10;99.90;;;;;;5027441;28;20508;-57
2023/05/21 10:11:30;;;;;;;5.88;4.30;;;18.10;99.90;;;;;;5028524;28;20038;-57
2023/05/21 10:14:08;;;;;;;5.88;3.60;;;18.10;99.90;;;;;;5028808;28;20052;-58
2023/05/21 10:16:35;;;;;;;3.75;2.28;;;18.10;99.90;;;;;;5029125;28;20052;-57
2023/05/21 10:19:01;;;;;;;7.97;4.18;;;18.10;99.90;;;;;;5026761;28;20102;-57
2023/05/21 10:21:27;;;;;;;7.30;3.38;;;18.10;99.90;;;;;;5027919;28;20049;-57
2023/05/21 10:23:56;;;;;;;7.57;3.33;;;18.10;99.90;;;;;;5027882;28;20133;-57
2023/05/21 10:26:23;;;;;;;8.02;3.17;;;18.20;99.90;;;;;;5027800;28;20049;-57
2023/05/21 10:28:50;;;;;;;4.03;2.10;;;18.30;99.90;;;;;;5026634;28;21873;-57
2023/05/21 10:31:16;;;;;;;5.28;2.97;;;18.40;99.90;;;;;;5027297;28;20042;-57
2023/05/21 10:33:42;;;;;;;6.05;3.70;;;18.50;99.90;;;;;;5028537;28;20046;-57
2023/05/21 10:36:09;;;;;;;15.10;4.45;;;18.40;99.90;;;;;;5026542;28;20129;-57
2023/05/21 10:38:36;;;;;;;5.35;3.22;;;18.40;99.60;;;;;;5025475;28;20160;-57
2023/05/21 10:41:05;;;;;;;6.28;3.38;;;18.30;99.60;;;;;;5027505;28;20082;-57
2023/05/21 10:43:42;;;;;;;7.00;4.00;;;18.30;99.30;;;;;;5026589;28;20128;-58
2023/05/21 10:46:47;;;;;;;5.35;3.55;;;18.40;99.60;;;;;;5026935;28;20069;-57
2023/05/21 10:49:24;;;;;;;9.55;4.45;;;18.40;99.30;;;;;;5026188;28;20551;-57
2023/05/21 10:52:15;;;;;;;4.10;3.15;;;18.40;99.00;;;;;;5027308;28;20077;-57
2023/05/21 10:54:48;;;;;;;5.50;2.92;;;18.40;98.80;;;;;;5011042;28;20048;-57
2023/05/21 10:57:32;;;;;;;5.13;3.50;;;18.40;98.80;;;;;;5025991;28;20054;-58
2023/05/21 10:59:59;;;;;;;5.80;3.15;;;18.40;98.70;;;;;;5026526;28;20548;-57
2023/05/21 11:02:26;;;;;;;7.20;2.88;;;18.40;98.60;;;;;;5026117;28;20471;-57
2023/05/21 11:05:02;;;;;;;4.78;2.75;;;18.40;98.50;;;;;;5027494;28;20048;-57
2023/05/21 11:07:56;;;;;;;5.95;2.90;;;18.50;98.70;;;;;;5010921;28;20152;-57
2023/05/21 11:10:38;;;;;;;4.30;2.70;;;18.50;98.60;;;;;;5025278;28;20335;-57
2023/05/21 11:13:24;;;;;;;6.90;3.22;;;18.50;98.40;;;;;;5024382;28;20045;-57
2023/05/21 11:16:04;;;;;;;4.93;3.22;;;18.50;97.90;;;;;;5028131;28;20049;-57
2023/05/21 11:18:30;;;;;;;4.75;2.40;;;18.50;98.10;;;;;;5026519;28;20076;-59
2023/05/21 11:21:16;;;;;;;2.67;2.13;;;18.60;98.00;;;;;;5009691;28;20657;-57
2023/05/21 11:23:51;;;;;;;6.18;2.42;;;18.70;97.80;;;;;;5026505;28;20115;-57
2023/05/21 11:26:17;;;;;;;4.68;3.65;;;18.70;97.40;;;;;;5024771;28;20291;-57
2023/05/21 11:28:43;;;;;;;5.57;3.67;;;18.70;97.40;;;;;;5025620;28;20042;-58
2023/05/21 11:31:26;;;;;;;4.32;2.25;;;18.70;97.30;;;;;;5024145;28;20439;-58
2023/05/21 11:34:10;;;;;;;5.05;2.70;;;18.70;97.10;;;;;;5006806;28;20799;-57
2023/05/21 11:36:46;;;;;;;5.25;3.00;;;18.70;97.00;;;;;;5027079;28;20040;-57
2023/05/21 11:39:20;;;;;;;5.65;2.40;;;18.80;97.00;;;;;;5025707;28;20057;-58
2023/05/21 11:42:02;;;;;;;3.67;2.08;;;18.80;97.10;;;;;;5026568;28;20042;-56
2023/05/21 11:44:40;;;;;;;3.88;2.80;;;18.90;96.70;;;;;;5022085;28;20058;-57
2023/05/21 11:47:08;;;;;;;4.38;2.75;;;18.90;96.70;;;;;;5023958;28;20045;-57
2023/05/21 11:49:35;;;;;;;5.57;2.95;;;19.00;96.90;;;;;;5026597;28;20045;-57
2023/05/21 11:52:05;;;;;;;3.53;2.42;;;19.00;96.60;;;;;;5023210;28;20041;-57
2023/05/21 11:54:36;;;;;;;4.90;2.30;;;19.00;96.50;;;;;;5026764;28;20053;-57
2023/05/21 11:57:08;;;;;;;2.90;2.10;;;19.00;96.10;;;;;;5024983;28;20046;-57
2023/05/21 11:59:35;;;;;;;3.53;1.73;;;19.00;95.90;;;;;;5026770;28;20042;-57
2023/05/21 12:02:01;;;;;;;4.65;3.35;;;19.10;96.10;;;;;;5025845;28;20534;-57
2023/05/21 12:04:37;;;;;;;3.00;1.90;;;19.10;96.20;;;;;;5026574;28;20748;-57
2023/05/21 12:07:07;;;;;;;7.82;2.83;;;19.20;96.20;;;;;;5021940;28;20065;-57
2023/05/21 12:09:43;;;;;;;2.60;1.73;;;19.20;95.70;;;;;;5024469;28;20045;-57
2023/05/21 12:12:12;;;;;;;3.70;2.47;;;19.30;95.80;;;;;;5026264;28;20041;-57
2023/05/21 12:14:38;;;;;;;4.13;2.53;;;19.30;95.80;;;;;;5025495;28;20065;-57
2023/05/21 12:17:09;;;;;;;3.90;2.10;;;19.50;95.60;;;;;;5025180;28;20048;-57
2023/05/21 12:19:36;;;;;;;8.77;3.28;;;19.70;95.70;;;;;;5058033;28;20108;-57
2023/05/21 12:22:03;;;;;;;3.78;1.83;;;19.80;95.60;;;;;;5024689;28;20950;-57
2023/05/21 12:24:29;;;;;;;3.28;2.20;;;19.80;95.20;;;;;;5024594;28;20037;-57
2023/05/21 12:27:00;;;;;;;4.00;1.92;;;19.80;95.10;;;;;;5025557;28;20077;-57
2023/05/21 12:29:34;;;;;;;3.45;2.13;;;19.70;95.00;;;;;;5025896;28;20128;-57
2023/05/21 12:32:01;;;;;;;5.40;2.88;;;19.60;95.10;;;;;;5024031;28;20143;-57
2023/05/21 12:34:45;;;;;;;3.40;1.75;;;19.70;95.30;;;;;;5025606;28;20510;-57
2023/05/21 12:37:31;;;;;;;4.32;2.45;;;19.90;95.00;;;;;;5056474;28;20069;-57
2023/05/21 12:40:03;;;;;;;5.10;2.22;;;19.80;94.90;;;;;;5025689;28;20132;-57
2023/05/21 12:42:34;;;;;;;5.18;2.25;;;19.80;94.90;;;;;;5024181;28;20042;-57
2023/05/21 12:45:05;;;;;;;5.28;2.25;;;19.80;94.70;;;;;;5057132;28;20567;-58
2023/05/21 12:47:32;;;;;;;4.55;2.10;;;19.70;94.90;;;;;;5024688;28;20034;-57